createdAt,value
2023-01-01T00:00:51.679Z,6.80
2023-01-01T00:03:20.610Z,7.00
2023-01-01T00:05:49.085Z,6.37
2023-01-01T00:08:17.575Z,4.63
2023-01-01T00:10:47.318Z,4.57
2023-01-01T00:13:16.159Z,6.10
2023-01-01T00:15:44.507Z,6.03
2023-01-01T00:18:13.065Z,6.47
2023-01-01T00:20:41.457Z,4.60
2023-01-01T00:23:09.971Z,6.87
2023-01-01T00:25:38.469Z,5.57
2023-01-01T00:28:10.099Z,5.17
2023-01-01T00:30:41.913Z,4.90
2023-01-01T00:33:10.302Z,7.50
2023-01-01T00:35:39.041Z,10.07
2023-01-01T00:38:08.671Z,4.77
2023-01-01T00:40:37.440Z,5.03
2023-01-01T00:43:07.250Z,5.27
2023-01-01T00:45:35.732Z,4.63
2023-01-01T00:48:05.064Z,5.97
2023-01-01T00:50:33.473Z,4.93
2023-01-01T00:53:01.971Z,5.20
2023-01-01T00:55:30.935Z,5.17
2023-01-01T00:57:59.861Z,7.03
2023-01-01T01:00:30.365Z,5.43
2023-01-01T01:02:59.299Z,5.27
2023-01-01T01:05:28.531Z,5.73
2023-01-01T01:07:57.991Z,6.47
2023-01-01T01:10:27.211Z,7.07
2023-01-01T01:12:56.053Z,5.43
2023-01-01T01:15:24.723Z,4.03
2023-01-01T01:17:54.588Z,4.87
2023-01-01T01:20:22.978Z,7.07
2023-01-01T01:22:52.016Z,5.67
2023-01-01T01:25:20.537Z,6.00
2023-01-01T01:27:48.939Z,4.27
2023-01-01T01:30:17.496Z,4.07
2023-01-01T01:32:46.379Z,3.93
2023-01-01T01:35:16.685Z,5.13
2023-01-01T01:37:45.079Z,4.63
2023-01-01T01:40:16.502Z,4.53
2023-01-01T01:42:48.336Z,3.60
2023-01-01T01:45:18.164Z,3.03
2023-01-01T01:47:51.534Z,2.93
2023-01-01T01:50:27.460Z,3.40
2023-01-01T01:53:05.071Z,2.00
2023-01-01T01:55:38.353Z,3.60
2023-01-01T01:58:09.302Z,3.73
2023-01-01T02:00:37.960Z,2.47
2023-01-01T02:03:09.798Z,4.00
2023-01-01T02:05:42.040Z,4.60
2023-01-01T02:08:12.116Z,4.07
2023-01-01T02:10:40.503Z,2.50
2023-01-01T02:13:09.567Z,1.87
2023-01-01T02:15:43.500Z,2.23
2023-01-01T02:18:16.199Z,1.87
2023-01-01T02:20:55.095Z,2.83
2023-01-01T02:23:57.160Z,2.03
2023-01-01T02:26:54.550Z,1.73
2023-01-01T02:29:43.209Z,2.53
2023-01-01T02:32:15.449Z,2.73
2023-01-01T02:34:49.905Z,3.87
2023-01-01T02:37:21.153Z,2.30
2023-01-01T02:39:55.660Z,2.33
2023-01-01T02:42:29.381Z,1.40
2023-01-01T02:45:00.576Z,2.13
2023-01-01T02:47:29.135Z,1.23
2023-01-01T02:50:05.342Z,2.27
2023-01-01T02:52:58.020Z,2.53
2023-01-01T02:55:37.960Z,3.07
2023-01-01T02:58:32.390Z,1.87
2023-01-01T03:01:13.166Z,1.20
2023-01-01T03:03:47.735Z,1.77
2023-01-01T03:06:27.230Z,2.00
2023-01-01T03:09:06.406Z,1.27
2023-01-01T03:11:44.836Z,0.73
2023-01-01T03:14:22.665Z,1.83
2023-01-01T03:16:58.499Z,1.10
2023-01-01T03:19:31.583Z,1.53
2023-01-01T03:22:05.629Z,2.23
2023-01-01T03:24:39.219Z,2.20
2023-01-01T03:27:12.596Z,1.27
2023-01-01T03:29:45.202Z,2.00
2023-01-01T03:32:21.271Z,1.80
2023-01-01T03:34:56.525Z,0.87
2023-01-01T03:37:31.765Z,1.30
2023-01-01T03:40:01.270Z,2.47
2023-01-01T03:42:37.010Z,1.57
2023-01-01T03:45:10.934Z,2.90
2023-01-01T03:47:41.213Z,1.47
2023-01-01T03:50:10.726Z,1.40
2023-01-01T03:52:48.093Z,1.57
2023-01-01T03:55:23.419Z,1.43
2023-01-01T03:58:02.847Z,0.60
2023-01-01T04:00:35.940Z,1.77
2023-01-01T04:03:09.392Z,0.93
2023-01-01T04:05:42.035Z,1.50
2023-01-01T04:08:12.200Z,1.30
2023-01-01T04:10:44.781Z,1.60
2023-01-01T04:13:14.398Z,1.53
2023-01-01T04:15:43.487Z,1.33
2023-01-01T04:18:13.923Z,1.10
2023-01-01T04:20:42.393Z,1.40
2023-01-01T04:23:10.758Z,1.23
2023-01-01T04:25:39.267Z,1.83
2023-01-01T04:28:08.672Z,0.77
2023-01-01T04:33:04.471Z,1.17
2023-01-01T04:35:34.790Z,1.23
2023-01-01T04:38:03.798Z,1.93
2023-01-01T04:40:32.164Z,2.13
2023-01-01T04:43:00.458Z,1.30
2023-01-01T04:45:28.984Z,1.50
2023-01-01T04:47:57.526Z,1.73
2023-01-01T04:50:26.000Z,1.67
2023-01-01T04:52:56.428Z,0.80
2023-01-01T04:55:24.837Z,1.27
2023-01-01T04:57:53.510Z,1.17
2023-01-01T05:00:23.163Z,0.80
2023-01-01T05:02:52.317Z,1.07
2023-01-01T05:05:22.332Z,1.10
2023-01-01T05:07:51.989Z,2.07
2023-01-01T05:10:21.788Z,0.77
2023-01-01T05:12:50.221Z,1.07
2023-01-01T05:15:18.709Z,1.27
2023-01-01T05:17:47.206Z,3.90
2023-01-01T05:20:15.744Z,1.57
2023-01-01T05:22:44.215Z,3.80
2023-01-01T05:25:13.122Z,1.03
2023-01-01T05:27:42.998Z,1.90
2023-01-01T05:30:12.687Z,0.93
2023-01-01T05:32:41.113Z,4.47
2023-01-01T05:35:10.460Z,1.60
2023-01-01T05:37:39.178Z,1.53
2023-01-01T05:40:09.159Z,1.63
2023-01-01T05:42:37.465Z,1.57
2023-01-01T05:45:10.390Z,2.17
2023-01-01T05:47:39.330Z,0.83
2023-01-01T05:52:36.962Z,0.60
2023-01-01T05:55:06.080Z,1.73
2023-01-01T05:57:34.597Z,1.13
2023-01-01T06:00:03.177Z,0.80
2023-01-01T06:02:36.485Z,1.43
2023-01-01T06:05:07.461Z,1.30
2023-01-01T06:07:36.034Z,1.60
2023-01-01T06:10:06.381Z,2.43
2023-01-01T06:12:35.186Z,1.90
2023-01-01T06:15:03.529Z,3.00
2023-01-01T06:17:31.905Z,1.60
2023-01-01T06:20:01.914Z,1.00
2023-01-01T06:22:30.466Z,1.20
2023-01-01T06:24:59.253Z,1.13
2023-01-01T06:27:27.916Z,0.63
2023-01-01T06:29:57.730Z,2.10
2023-01-01T06:32:26.302Z,0.90
2023-01-01T06:34:54.687Z,0.93
2023-01-01T06:37:24.827Z,0.67
2023-01-01T06:39:53.240Z,1.70
2023-01-01T06:42:21.812Z,1.00
2023-01-01T06:44:50.110Z,1.07
2023-01-01T06:47:19.914Z,3.13
2023-01-01T06:49:49.615Z,1.27
2023-01-01T06:52:18.173Z,1.03
2023-01-01T06:54:49.178Z,0.90
2023-01-01T06:57:17.678Z,0.60
2023-01-01T06:59:46.076Z,1.73
2023-01-01T07:02:14.677Z,1.27
2023-01-01T07:04:43.401Z,1.73
2023-01-01T07:07:12.171Z,1.30
2023-01-01T07:09:40.772Z,0.60
2023-01-01T07:12:10.713Z,0.97
2023-01-01T07:14:39.122Z,0.70
2023-01-01T07:17:07.579Z,0.60
2023-01-01T07:19:36.800Z,1.20
2023-01-01T07:22:05.139Z,1.33
2023-01-01T07:24:33.566Z,2.03
2023-01-01T07:27:02.132Z,1.23
2023-01-01T07:29:33.529Z,3.60
2023-01-01T07:32:03.936Z,1.33
2023-01-01T07:34:32.369Z,0.93
2023-01-01T07:37:01.708Z,1.30
2023-01-01T07:39:30.004Z,1.17
2023-01-01T07:41:58.672Z,1.40
2023-01-01T07:44:27.175Z,0.83
2023-01-01T07:47:05.020Z,1.47
2023-01-01T07:49:33.679Z,2.70
2023-01-01T07:52:02.123Z,1.53
2023-01-01T07:54:30.494Z,1.53
2023-01-01T07:56:58.955Z,0.70
2023-01-01T07:59:27.366Z,1.43
2023-01-01T08:01:56.103Z,0.90
2023-01-01T08:04:26.806Z,2.67
2023-01-01T08:06:55.450Z,1.63
2023-01-01T08:09:27.222Z,1.20
2023-01-01T08:11:58.512Z,2.13
2023-01-01T08:14:26.900Z,1.17
2023-01-01T08:16:55.281Z,1.17
2023-01-01T08:19:25.480Z,0.90
2023-01-01T08:21:54.175Z,1.97
2023-01-01T08:24:22.558Z,1.07
2023-01-01T08:26:51.404Z,0.93
2023-01-01T08:29:21.313Z,2.10
2023-01-01T08:31:49.830Z,0.90
2023-01-01T08:34:18.199Z,1.37
2023-01-01T08:36:48.247Z,2.30
2023-01-01T08:39:16.621Z,1.60
2023-01-01T08:41:44.975Z,3.03
2023-01-01T08:44:13.351Z,2.43
2023-01-01T08:46:41.739Z,1.40
2023-01-01T08:49:10.477Z,1.70
2023-01-01T08:51:39.260Z,1.47
2023-01-01T08:54:09.272Z,0.63
2023-01-01T08:56:38.365Z,1.60
2023-01-01T08:59:06.765Z,1.80
2023-01-01T09:01:35.326Z,3.80
2023-01-01T09:04:03.900Z,1.03
2023-01-01T09:06:32.329Z,0.97
2023-01-01T09:09:01.177Z,1.23
2023-01-01T09:11:30.981Z,1.93
2023-01-01T09:13:59.266Z,1.63
2023-01-01T09:16:28.046Z,3.17
2023-01-01T09:18:56.698Z,2.13
2023-01-01T09:21:25.412Z,1.70
2023-01-01T09:23:53.832Z,1.20
2023-01-01T09:26:22.425Z,1.30
2023-01-01T09:28:53.355Z,2.47
2023-01-01T09:31:22.387Z,1.07
2023-01-01T09:33:50.835Z,1.10
2023-01-01T09:36:30.412Z,2.70
2023-01-01T09:38:59.962Z,1.13
2023-01-01T09:41:49.947Z,2.50
2023-01-01T09:44:39.487Z,1.87
2023-01-01T09:47:21.473Z,1.97
2023-01-01T09:49:51.587Z,2.03
2023-01-01T09:52:21.823Z,1.23
2023-01-01T09:54:57.363Z,4.03
2023-01-01T09:57:31.228Z,1.83
2023-01-01T10:00:01.826Z,1.23
2023-01-01T10:02:53.464Z,1.53
2023-01-01T10:05:34.716Z,1.77
2023-01-01T10:08:11.355Z,1.63
2023-01-01T10:10:42.991Z,1.33
2023-01-01T10:13:24.109Z,2.27
2023-01-01T10:16:00.435Z,1.73
2023-01-01T10:18:34.884Z,2.57
2023-01-01T10:21:10.768Z,1.83
2023-01-01T10:23:45.101Z,3.77
2023-01-01T10:26:19.102Z,2.63
2023-01-01T10:28:55.811Z,2.83
2023-01-01T10:31:34.893Z,1.87
2023-01-01T10:34:14.538Z,1.23
2023-01-01T10:36:44.617Z,2.00
2023-01-01T10:39:16.968Z,1.23
2023-01-01T10:41:45.945Z,0.90
2023-01-01T10:44:17.785Z,1.13
2023-01-01T10:46:52.126Z,1.53
2023-01-01T10:49:21.234Z,1.57
2023-01-01T10:51:52.390Z,1.07
2023-01-01T10:54:34.194Z,1.27
2023-01-01T10:57:16.282Z,1.47
2023-01-01T10:59:52.036Z,3.53
2023-01-01T11:02:26.508Z,1.33
2023-01-01T11:05:21.444Z,1.90
2023-01-01T11:07:51.357Z,1.53
2023-01-01T11:10:23.388Z,1.20
2023-01-01T11:13:09.189Z,2.97
2023-01-01T11:15:40.891Z,1.90
2023-01-01T11:18:16.809Z,1.97
2023-01-01T11:20:45.642Z,1.30
2023-01-01T11:23:33.215Z,1.80
2023-01-01T11:26:06.955Z,2.40
2023-01-01T11:28:37.164Z,3.10
2023-01-01T11:31:15.575Z,0.83
2023-01-01T11:33:52.642Z,1.37
2023-01-01T11:36:27.111Z,2.00
2023-01-01T11:39:20.947Z,1.50
2023-01-01T11:41:51.819Z,1.70
2023-01-01T11:44:33.612Z,2.00
2023-01-01T11:47:02.868Z,3.00
2023-01-01T11:49:33.588Z,0.83
2023-01-01T11:52:02.552Z,1.33
2023-01-01T11:54:35.963Z,1.40
2023-01-01T11:57:14.326Z,1.67
2023-01-01T11:59:48.486Z,1.53
2023-01-01T12:02:25.128Z,2.60
2023-01-01T12:05:04.959Z,1.93
2023-01-01T12:07:38.147Z,1.40
2023-01-01T12:10:16.516Z,1.93
2023-01-01T12:12:52.795Z,1.97
2023-01-01T12:15:27.554Z,2.93
2023-01-01T12:18:03.088Z,2.80
2023-01-01T12:20:37.013Z,1.13
2023-01-01T12:23:05.582Z,1.60
2023-01-01T12:25:41.067Z,1.50
2023-01-01T12:28:29.550Z,2.13
2023-01-01T12:31:04.706Z,2.27
2023-01-01T12:33:58.976Z,1.87
2023-01-01T12:36:43.012Z,1.70
2023-01-01T12:40:24.814Z,2.17
2023-01-01T12:43:03.696Z,1.50
2023-01-01T12:45:52.679Z,0.80
2023-01-01T12:48:38.919Z,1.10
2023-01-01T12:51:20.825Z,3.97
2023-01-01T12:54:01.144Z,3.23
2023-01-01T12:56:33.713Z,1.73
2023-01-01T12:59:12.711Z,1.50
2023-01-01T13:01:42.306Z,1.30
2023-01-01T13:04:16.003Z,0.77
2023-01-01T13:06:50.266Z,1.93
2023-01-01T13:09:22.906Z,1.00
2023-01-01T13:11:57.065Z,2.00
2023-01-01T13:14:26.963Z,1.70
2023-01-01T13:16:57.686Z,1.83
2023-01-01T13:19:32.476Z,1.33
2023-01-01T13:22:42.981Z,2.53
2023-01-01T13:25:24.133Z,2.80
2023-01-01T13:28:13.254Z,3.03
2023-01-01T13:30:53.255Z,1.50
2023-01-01T13:33:27.191Z,2.17
2023-01-01T13:36:33.160Z,1.80
2023-01-01T13:39:02.521Z,2.03
2023-01-01T13:41:35.688Z,3.10
2023-01-01T13:44:20.391Z,3.83
2023-01-01T13:47:17.070Z,1.43
2023-01-01T13:50:07.186Z,1.83
2023-01-01T13:53:14.063Z,1.83
2023-01-01T13:56:03.781Z,2.20
2023-01-01T13:59:15.350Z,2.10
2023-01-01T14:01:53.226Z,1.90
2023-01-01T14:04:40.059Z,3.60
2023-01-01T14:07:49.640Z,1.47
2023-01-01T14:10:29.703Z,1.33
2023-01-01T14:13:16.144Z,0.80
2023-01-01T14:15:54.590Z,1.10
2023-01-01T14:18:32.934Z,2.23
2023-01-01T14:21:02.947Z,2.07
2023-01-01T14:23:35.459Z,1.67
2023-01-01T14:26:10.151Z,1.20
2023-01-01T14:28:40.163Z,1.37
2023-01-01T14:31:15.409Z,2.30
2023-01-01T14:33:44.135Z,2.17
2023-01-01T14:36:23.136Z,2.13
2023-01-01T14:38:53.882Z,2.77
2023-01-01T14:41:28.744Z,1.10
2023-01-01T14:44:04.179Z,0.63
2023-01-01T14:46:33.214Z,3.13
2023-01-01T14:49:09.767Z,0.97
2023-01-01T14:51:45.721Z,2.37
2023-01-01T14:54:20.201Z,2.23
2023-01-01T14:56:51.530Z,1.57
2023-01-01T14:59:26.500Z,1.17
2023-01-01T15:02:03.632Z,2.03
2023-01-01T15:04:32.405Z,1.13
2023-01-01T15:07:02.802Z,2.37
2023-01-01T15:09:34.303Z,2.03
2023-01-01T15:12:03.767Z,1.53
2023-01-01T15:14:37.374Z,2.07
2023-01-01T15:17:08.516Z,3.70
2023-01-01T15:19:38.460Z,1.77
2023-01-01T15:22:15.470Z,2.00
2023-01-01T15:24:46.844Z,2.77
2023-01-01T15:27:24.467Z,3.57
2023-01-01T15:29:53.059Z,1.13
2023-01-01T15:32:27.873Z,2.40
2023-01-01T15:34:58.051Z,1.50
2023-01-01T15:37:34.767Z,1.10
2023-01-01T15:40:31.461Z,1.30
2023-01-01T15:43:23.365Z,1.30
2023-01-01T15:45:56.386Z,1.33
2023-01-01T15:48:37.432Z,1.63
2023-01-01T15:51:15.573Z,3.67
2023-01-01T15:53:59.934Z,1.57
2023-01-01T15:56:31.858Z,1.00
2023-01-01T15:59:08.663Z,1.93
2023-01-01T16:01:41.823Z,1.37
2023-01-01T16:04:15.427Z,1.47
2023-01-01T16:06:45.775Z,1.37
2023-01-01T16:09:17.014Z,1.30
2023-01-01T16:11:46.395Z,2.20
2023-01-01T16:14:15.251Z,3.17
2023-01-01T16:16:47.329Z,2.43
2023-01-01T16:19:19.163Z,1.27
2023-01-01T16:21:48.042Z,1.37
2023-01-01T16:24:20.287Z,1.00
2023-01-01T16:26:49.840Z,1.40
2023-01-01T16:29:18.367Z,2.33
2023-01-01T16:31:48.684Z,1.70
2023-01-01T16:34:17.251Z,2.00
2023-01-01T16:36:46.743Z,2.83
2023-01-01T16:39:15.365Z,1.30
2023-01-01T16:41:46.185Z,1.50
2023-01-01T16:44:15.304Z,1.57
2023-01-01T16:46:44.657Z,1.17
2023-01-01T16:49:13.280Z,1.33
2023-01-01T16:51:43.939Z,1.47
2023-01-01T16:54:12.739Z,1.63
2023-01-01T16:56:41.184Z,1.00
2023-01-01T16:59:11.652Z,1.67
2023-01-01T17:01:40.131Z,0.97
2023-01-01T17:04:08.846Z,1.00
2023-01-01T17:06:39.320Z,0.70
2023-01-01T17:09:08.373Z,1.83
2023-01-01T17:11:39.316Z,0.77
2023-01-01T17:14:08.523Z,1.13
2023-01-01T17:16:39.777Z,1.17
2023-01-01T17:19:17.977Z,1.40
2023-01-01T17:21:48.214Z,1.77
2023-01-01T17:24:17.277Z,2.20
2023-01-01T17:26:46.344Z,2.40
2023-01-01T17:29:14.788Z,2.60
2023-01-01T17:31:44.730Z,2.47
2023-01-01T17:34:14.588Z,1.80
2023-01-01T17:36:45.285Z,2.27
2023-01-01T17:39:15.708Z,1.47
2023-01-01T17:41:45.724Z,1.80
2023-01-01T17:44:14.493Z,1.87
2023-01-01T17:46:44.819Z,1.40
2023-01-01T17:49:13.860Z,1.30
2023-01-01T17:51:42.385Z,1.87
2023-01-01T17:54:13.677Z,1.23
2023-01-01T17:56:42.528Z,1.40
2023-01-01T17:59:11.515Z,1.53
2023-01-01T18:01:40.354Z,2.03
2023-01-01T18:04:11.315Z,0.83
2023-01-01T18:06:43.094Z,1.10
2023-01-01T18:09:14.846Z,2.03
2023-01-01T18:11:44.834Z,1.73
2023-01-01T18:14:17.353Z,0.93
2023-01-01T18:16:48.235Z,0.80
2023-01-01T18:19:17.971Z,1.03
2023-01-01T18:21:46.484Z,0.80
2023-01-01T18:24:16.832Z,0.80
2023-01-01T18:26:45.349Z,1.30
2023-01-01T18:29:13.945Z,2.30
2023-01-01T18:31:42.527Z,4.60
2023-01-01T18:34:11.820Z,1.13
2023-01-01T18:36:41.913Z,1.30
2023-01-01T18:39:17.932Z,1.10
2023-01-01T18:42:30.987Z,2.33
2023-01-01T18:45:13.556Z,1.17
2023-01-01T18:47:42.669Z,1.83
2023-01-01T18:50:23.655Z,2.03
2023-01-01T18:52:58.770Z,1.53
2023-01-01T18:55:28.137Z,2.03
2023-01-01T18:58:03.092Z,1.27
2023-01-01T19:00:33.272Z,1.33
2023-01-01T19:03:04.067Z,1.80
2023-01-01T19:05:34.887Z,1.23
2023-01-01T19:08:15.703Z,2.10
2023-01-01T19:10:49.984Z,1.10
2023-01-01T19:13:21.898Z,1.17
2023-01-01T19:15:53.319Z,1.27
2023-01-01T19:18:27.610Z,2.50
2023-01-01T19:21:03.029Z,1.63
2023-01-01T19:23:33.019Z,2.30
2023-01-01T19:26:05.064Z,1.53
2023-01-01T19:28:37.720Z,1.80
2023-01-01T19:31:07.636Z,1.73
2023-01-01T19:33:36.758Z,1.77
2023-01-01T19:36:06.468Z,1.97
2023-01-01T19:38:36.357Z,1.60
2023-01-01T19:41:04.764Z,1.27
2023-01-01T19:43:33.165Z,2.73
2023-01-01T19:46:01.800Z,1.43
2023-01-01T19:48:30.293Z,1.83
2023-01-01T19:50:58.672Z,2.97
2023-01-01T19:53:27.261Z,1.70
2023-01-01T19:55:57.263Z,2.27
2023-01-01T19:58:25.731Z,2.03
2023-01-01T20:00:54.190Z,1.27
2023-01-01T20:03:52.980Z,1.70
2023-01-01T20:06:13.017Z,2.37
2023-01-01T20:08:41.428Z,2.47
2023-01-01T20:11:11.398Z,2.93
2023-01-01T20:13:40.230Z,2.27
2023-01-01T20:16:09.847Z,1.67
2023-01-01T20:18:38.557Z,2.80
2023-01-01T20:21:26.695Z,2.17
2023-01-01T20:23:56.017Z,2.00
2023-01-01T20:26:26.547Z,1.63
2023-01-01T20:29:12.497Z,3.70
2023-01-01T20:31:41.872Z,2.33
2023-01-01T20:34:10.379Z,2.20
2023-01-01T20:36:56.149Z,1.83
2023-01-01T20:39:24.718Z,1.47
2023-01-01T20:41:54.739Z,2.03
2023-01-01T20:44:23.699Z,3.17
2023-01-01T20:46:52.223Z,1.40
2023-01-01T20:49:21.780Z,2.10
2023-01-01T20:51:52.254Z,1.60
2023-01-01T20:54:21.362Z,2.17
2023-01-01T20:56:50.135Z,2.47
2023-01-01T20:59:37.213Z,1.53
2023-01-01T21:02:07.292Z,2.07
2023-01-01T21:04:38.957Z,4.23
2023-01-01T21:07:09.919Z,1.60
2023-01-01T21:09:39.654Z,1.93
2023-01-01T21:12:09.561Z,2.50
2023-01-01T21:14:39.656Z,2.90
2023-01-01T21:17:22.585Z,2.40
2023-01-01T21:19:52.257Z,1.53
2023-01-01T21:22:20.950Z,2.17
2023-01-01T21:24:53.997Z,3.17
2023-01-01T21:27:30.580Z,1.77
2023-01-01T21:30:01.058Z,1.50
2023-01-01T21:32:39.456Z,2.97
2023-01-01T21:35:20.127Z,2.27
2023-01-01T21:37:50.914Z,2.77
2023-01-01T21:40:40.131Z,2.50
2023-01-01T21:43:25.811Z,1.97
2023-01-01T21:45:58.576Z,3.07
2023-01-01T21:48:32.475Z,3.00
2023-01-01T21:51:02.178Z,2.50
2023-01-01T21:53:34.224Z,2.77
2023-01-01T21:56:22.566Z,2.93
2023-01-01T21:59:08.792Z,1.70
2023-01-01T22:01:41.118Z,2.67
2023-01-01T22:04:23.508Z,1.80
2023-01-01T22:06:55.170Z,3.07
2023-01-01T22:09:26.455Z,2.03
2023-01-01T22:12:00.904Z,2.57
2023-01-01T22:14:41.825Z,2.23
2023-01-01T22:17:16.466Z,3.07
2023-01-01T22:19:46.197Z,2.60
2023-01-01T22:22:16.633Z,3.83
2023-01-01T22:24:46.661Z,1.63
2023-01-01T22:27:28.387Z,2.50
2023-01-01T22:29:57.840Z,2.60
2023-01-01T22:32:30.337Z,3.70
2023-01-01T22:35:08.228Z,2.33
2023-01-01T22:37:39.624Z,2.17
2023-01-01T22:40:22.824Z,1.53
2023-01-01T22:42:52.034Z,2.63
2023-01-01T22:45:20.979Z,2.30
2023-01-01T22:47:51.408Z,4.87
2023-01-01T22:50:24.350Z,2.03
2023-01-01T22:52:53.215Z,2.17
2023-01-01T22:55:21.697Z,2.43
2023-01-01T22:57:50.421Z,2.10
2023-01-01T23:00:20.745Z,2.07
2023-01-01T23:02:50.579Z,2.27
2023-01-01T23:05:19.216Z,1.50
2023-01-01T23:07:48.461Z,2.10
2023-01-01T23:10:17.180Z,1.97
2023-01-01T23:12:46.476Z,1.23
2023-01-01T23:15:32.750Z,2.73
2023-01-01T23:18:02.743Z,2.30
2023-01-01T23:20:32.216Z,2.57
2023-01-01T23:23:00.737Z,1.70
2023-01-01T23:25:29.602Z,1.80
2023-01-01T23:27:58.468Z,4.07
2023-01-01T23:30:27.010Z,2.20
2023-01-01T23:32:55.502Z,3.50
2023-01-01T23:35:25.637Z,1.80
2023-01-01T23:37:54.068Z,1.57
2023-01-01T23:40:23.091Z,3.27
2023-01-01T23:42:51.505Z,1.63
2023-01-01T23:45:19.992Z,3.47
2023-01-01T23:47:48.879Z,3.70
2023-01-01T23:50:17.379Z,3.47
2023-01-01T23:52:47.203Z,3.20
2023-01-01T23:55:15.569Z,3.10
2023-01-01T23:57:44.104Z,2.23
